Forside
METAR-TAF:

METAR-TAF

Lufthavne :

Dallas/Fort Worth International Airport

Dallas / Fort Worth, Texas, USA

Breddekreds: 32-53-49N, længdekreds: 097-01-19W, højde: 183 m

Aktuelle vejr

Denne rapport blev lavet for 29 minutter siden, kl. 22:53 UTC
Vind 6 kt fra sydsydøst
Temperatur 39°C
Fugtighed 26%
Tryk 1013 hPa
Sigt: 16.1 km
Nogle få skyer i en højde af 10000 ft

METAR: KDFW 172253Z 16006KT 10SM FEW100 39/16 A2990 RMK AO2 SLP115 T03890156

Tid: 18:22 (23:22 UTC)

Vejrudsigter

Denne rapport blev lavet for 2 timer og 32 minutter siden, kl. 20:50 UTC
Foreløbig gælder fra 17 på 21 UTC til 18 på 24 UTC
Vind 9 kt fra syd
Sigt: 10 km
Nogle få skyer i en højde af 25000 ft

TAF: KDFW 172050Z 1721/1824 19009KT P6SM FEW250

Vejrobservationer og prognoser fra mere end 4000 lufthavne (METAR og TAF).

De gule og røde prikker repræsenterer de meteorologiske stationer.

Flyt musen over at se navnet på stationen.

Så klik over at se vejr observationer og prognoser.

At skifte det kort: Klik på de grønne knapper med et sort kors for at zoome ind; på den grønne knap med en bindestreg for at zoome ud; eller på de grønne pile for tilstødende kort.


METAR-TAF: